Time;durP1;ratioP1;P1;durP2;ratioP2;P2;SDS_P1;SDS_P2;PMS_P1;PMS_P2;Temp;Humidity;BMP_temperature;BMP_pressure;BME280_temperature;BME280_humidity;BME280_pressure;Samples;Min_cycle;Max_cycle;Signal;HPM_P1;HPM_P2
2021/06/19 00:01:02;;;;;;;8.27;7.07;;;;;;;22.18;61.77;95009.84;5072566;28;20200;-77
2021/06/19 00:03:29;;;;;;;10.13;7.13;;;;;;;22.02;62.52;95011.53;5061333;28;20193;-77
2021/06/19 00:05:56;;;;;;;9.00;7.47;;;;;;;22.27;62.12;95007.09;5056069;28;20612;-72
2021/06/19 00:08:24;;;;;;;9.03;7.20;;;;;;;21.59;64.13;94990.41;5072448;28;20200;-74
2021/06/19 00:10:54;;;;;;;7.90;6.97;;;;;;;21.40;64.41;94981.25;5071957;28;20592;-76
2021/06/19 00:13:21;;;;;;;9.63;7.87;;;;;;;21.74;63.69;94995.19;5073118;28;20192;-77
2021/06/19 00:15:49;;;;;;;8.67;7.87;;;;;;;21.96;62.72;94986.13;5071864;28;20203;-75
2021/06/19 00:18:16;;;;;;;8.53;7.13;;;;;;;22.06;62.76;94994.53;5060082;28;20196;-79
2021/06/19 00:20:42;;;;;;;8.73;7.17;;;;;;;22.15;62.38;94991.81;5053646;28;20200;-73
2021/06/19 00:23:09;;;;;;;9.80;7.00;;;;;;;22.22;62.69;94994.75;5062929;28;20235;-73
2021/06/19 00:25:36;;;;;;;12.60;7.53;;;;;;;22.37;62.33;94991.47;5056847;28;20201;-75
2021/06/19 00:28:04;;;;;;;12.27;7.10;;;;;;;22.28;61.98;94988.09;5062367;28;20193;-74
2021/06/19 00:30:31;;;;;;;9.30;7.70;;;;;;;21.85;63.26;94996.41;5052965;28;20200;-77
2021/06/19 00:32:58;;;;;;;9.50;7.33;;;;;;;21.96;62.92;94994.94;5064007;28;20234;-73
2021/06/19 00:35:26;;;;;;;11.17;8.17;;;;;;;22.11;62.53;94988.25;5051476;28;20594;-74
2021/06/19 00:37:53;;;;;;;10.13;7.73;;;;;;;22.13;62.32;94981.44;5062549;28;20677;-77
2021/06/19 00:40:21;;;;;;;8.00;7.20;;;;;;;22.12;61.79;94971.91;5068342;28;20265;-74
2021/06/19 00:42:56;;;;;;;9.63;8.00;;;;;;;22.09;62.37;94972.56;5060927;28;20253;-75
2021/06/19 00:45:25;;;;;;;9.83;7.47;;;;;;;22.01;62.81;94977.94;5070736;28;20307;-76
2021/06/19 00:47:52;;;;;;;10.17;7.93;;;;;;;22.18;61.93;94975.16;5063387;28;20197;-76
2021/06/19 00:50:21;;;;;;;12.10;8.03;;;;;;;22.22;62.49;94984.06;5064816;28;20199;-74
2021/06/19 00:52:48;;;;;;;11.23;7.23;;;;;;;22.08;62.89;94987.00;5051636;28;20219;-75
2021/06/19 00:55:15;;;;;;;9.47;7.60;;;;;;;22.31;62.44;94976.78;5064797;28;20200;-75
2021/06/19 00:57:43;;;;;;;11.03;7.63;;;;;;;22.23;62.36;94979.50;5071524;28;20196;-74
2021/06/19 01:00:12;;;;;;;14.30;8.17;;;;;;;21.97;62.74;94974.34;5071283;28;20253;-75
2021/06/19 01:02:40;;;;;;;9.47;8.13;;;;;;;22.08;62.67;94978.19;5070713;28;20235;-73
2021/06/19 01:05:08;;;;;;;9.13;7.63;;;;;;;22.23;62.42;94969.59;5071772;28;20577;-72
2021/06/19 01:07:36;;;;;;;14.13;8.50;;;;;;;22.11;62.66;94972.22;5072607;28;20278;-74
2021/06/19 01:10:04;;;;;;;9.47;7.67;;;;;;;22.08;63.19;94970.97;5072248;28;20203;-78
2021/06/19 01:12:33;;;;;;;8.70;7.80;;;;;;;22.22;62.73;94970.72;5073029;28;20218;-74
2021/06/19 01:15:01;;;;;;;9.10;8.07;;;;;;;22.12;62.90;94969.22;5062673;28;20644;-78
2021/06/19 01:17:28;;;;;;;8.47;7.57;;;;;;;22.01;63.14;94967.25;5051430;28;20283;-72
2021/06/19 01:20:05;;;;;;;11.53;8.60;;;;;;;22.14;63.42;94955.56;5050598;28;20255;-74
2021/06/19 01:22:33;;;;;;;10.03;9.13;;;;;;;21.82;63.82;94958.94;5070102;28;20317;-73
2021/06/19 01:25:02;;;;;;;10.30;8.50;;;;;;;21.54;64.80;94958.59;5058001;28;20222;-74
2021/06/19 01:27:30;;;;;;;10.20;7.93;;;;;;;21.54;64.19;94968.47;5064154;28;20192;-74
2021/06/19 01:29:59;;;;;;;15.00;9.17;;;;;;;21.50;64.90;94957.66;5061320;28;20203;-75
2021/06/19 01:32:32;;;;;;;11.97;10.77;;;;;;;21.37;65.91;94958.66;5065628;28;20239;-74
2021/06/19 01:35:01;;;;;;;12.83;10.43;;;;;;;21.41;65.54;94970.25;5060433;28;20306;-74
2021/06/19 01:37:28;;;;;;;11.03;9.93;;;;;;;21.46;65.19;94967.41;5051666;28;20288;-73
2021/06/19 01:40:09;;;;;;;13.50;10.27;;;;;;;21.79;64.20;94965.69;5062432;28;20267;-74
2021/06/19 01:42:42;;;;;;;16.90;10.27;;;;;;;22.13;63.18;94970.00;5057318;28;20673;-73
2021/06/19 01:45:16;;;;;;;10.93;9.83;;;;;;;22.16;63.06;94969.34;5068885;28;20199;-73
2021/06/19 01:47:44;;;;;;;10.73;9.63;;;;;;;22.19;63.06;94974.03;5056851;28;20183;-73
2021/06/19 01:50:14;;;;;;;12.67;9.93;;;;;;;21.64;64.88;94973.44;5069390;28;20299;-74
2021/06/19 01:52:42;;;;;;;10.67;9.67;;;;;;;21.76;64.11;94970.84;5057505;28;20188;-76
2021/06/19 01:55:10;;;;;;;12.43;9.60;;;;;;;21.91;63.61;94970.31;5070446;28;20188;-75
2021/06/19 01:57:38;;;;;;;17.93;9.60;;;;;;;21.93;63.27;94981.47;5069251;28;20649;-77
2021/06/19 02:00:05;;;;;;;7.43;6.63;;;;;;;21.67;62.14;94988.78;5069973;28;20194;-72
2021/06/19 02:02:36;;;;;;;8.20;7.07;;;;;;;21.80;61.90;94963.81;5068185;28;20254;-75
2021/06/19 02:05:05;;;;;;;8.87;8.07;;;;;;;21.72;62.98;94997.41;5069671;28;20242;-72
2021/06/19 02:07:33;;;;;;;10.97;7.30;;;;;;;21.60;63.45;94993.84;5054843;28;20188;-75
2021/06/19 02:10:00;;;;;;;8.03;7.23;;;;;;;21.60;63.52;94993.84;5051717;28;20188;-75
2021/06/19 02:12:27;;;;;;;8.73;7.27;;;;;;;21.42;63.61;94984.38;5051116;28;20207;-75
2021/06/19 02:14:54;;;;;;;7.77;7.07;;;;;;;21.61;63.35;95006.06;5051264;28;20203;-80
2021/06/19 02:17:21;;;;;;;7.20;6.50;;;;;;;21.52;63.20;95016.00;5064728;28;20199;-76
2021/06/19 02:19:48;;;;;;;8.13;7.30;;;;;;;21.53;63.74;95020.25;5071181;28;20249;-75
2021/06/19 02:22:15;;;;;;;10.10;8.03;;;;;;;21.40;64.55;95021.25;5056925;28;20219;-74
2021/06/19 02:24:43;;;;;;;9.80;7.27;;;;;;;21.43;64.87;95020.59;5061413;28;20204;-74
2021/06/19 02:27:14;;;;;;;7.33;6.70;;;;;;;21.53;64.84;95020.25;5065135;28;20196;-72
2021/06/19 02:29:42;;;;;;;9.90;7.00;;;;;;;21.36;65.19;95014.97;5068619;28;20207;-74
2021/06/19 02:32:09;;;;;;;7.67;5.83;;;;;;;21.30;65.24;95011.69;5054293;28;20228;-75
2021/06/19 02:34:37;;;;;;;6.40;4.83;;;;;;;20.99;65.36;95022.63;5057952;28;20257;-71
2021/06/19 02:37:05;;;;;;;5.57;4.20;;;;;;;20.74;65.78;95026.09;5071345;28;20206;-73
2021/06/19 02:39:32;;;;;;;7.47;4.13;;;;;;;20.29;67.39;95030.16;5069971;28;20539;-75
2021/06/19 02:41:59;;;;;;;7.40;4.13;;;;;;;20.49;67.25;95012.78;5069662;28;20208;-72
2021/06/19 02:44:26;;;;;;;11.03;4.00;;;;;;;20.39;67.53;95013.88;5069335;28;20741;-73
2021/06/19 02:46:53;;;;;;;8.50;4.33;;;;;;;20.06;68.50;95018.06;5055277;28;20192;-72
2021/06/19 02:49:21;;;;;;;5.83;4.20;;;;;;;20.18;68.70;95012.94;5070118;28;20200;-72
2021/06/19 02:51:49;;;;;;;7.57;4.70;;;;;;;20.57;67.74;95007.44;5071855;28;20199;-73
2021/06/19 02:54:16;;;;;;;5.57;4.83;;;;;;;20.29;68.75;95000.88;5067889;28;20200;-73
2021/06/19 02:56:43;;;;;;;5.70;5.10;;;;;;;20.30;68.80;94986.50;5065129;28;20582;-76
2021/06/19 02:59:10;;;;;;;7.40;6.00;;;;;;;20.08;69.49;95003.34;5059580;28;20200;-75
2021/06/19 03:01:36;;;;;;;7.07;5.90;;;;;;;20.10;69.83;95005.69;5073240;28;20210;-75
2021/06/19 03:04:03;;;;;;;7.93;6.10;;;;;;;19.66;71.19;94984.66;5072395;28;21066;-75
2021/06/19 03:06:31;;;;;;;7.33;5.30;;;;;;;19.60;70.46;94986.69;5073449;28;20195;-75
2021/06/19 03:08:58;;;;;;;5.80;5.07;;;;;;;19.53;70.39;95001.50;5058985;28;20204;-74
2021/06/19 03:11:25;;;;;;;5.53;5.03;;;;;;;19.76;70.16;94992.38;5059754;28;20438;-75
2021/06/19 03:13:52;;;;;;;5.13;4.50;;;;;;;19.87;69.21;94990.97;5059535;28;20478;-73
2021/06/19 03:16:19;;;;;;;6.67;5.33;;;;;;;19.96;68.79;94984.56;5071566;28;20453;-72
2021/06/19 03:18:46;;;;;;;5.77;4.60;;;;;;;19.61;69.77;94979.50;5069568;28;20286;-70
2021/06/19 03:21:13;;;;;;;7.20;5.40;;;;;;;19.58;70.04;94978.22;5052514;28;20202;-72
2021/06/19 03:23:39;;;;;;;6.00;5.40;;;;;;;19.63;70.32;94979.97;5052290;28;20705;-70
2021/06/19 03:26:06;;;;;;;5.87;4.83;;;;;;;19.53;70.57;94985.56;5052036;28;20439;-69
2021/06/19 03:28:33;;;;;;;8.13;4.93;;;;;;;19.62;70.17;94991.69;5065410;28;20683;-74
2021/06/19 03:31:00;;;;;;;5.23;4.73;;;;;;;19.93;68.95;94984.41;5066473;28;20506;-74
2021/06/19 03:33:27;;;;;;;5.30;4.80;;;;;;;20.01;68.85;94994.28;5064219;28;20445;-75
2021/06/19 03:35:54;;;;;;;5.23;4.70;;;;;;;19.93;68.53;94995.03;5053698;28;20189;-75
2021/06/19 03:38:23;;;;;;;5.20;4.70;;;;;;;19.88;68.70;94997.84;5066759;28;20963;-76
2021/06/19 03:40:50;;;;;;;4.40;4.00;;;;;;;20.23;66.59;94991.50;5059971;28;20450;-77
2021/06/19 03:43:18;;;;;;;6.73;4.50;;;;;;;20.08;67.54;94994.59;5073223;28;20500;-78
2021/06/19 03:45:44;;;;;;;5.87;4.40;;;;;;;20.08;67.32;94978.63;5058189;28;20194;-75
2021/06/19 03:48:12;;;;;;;5.50;4.30;;;;;;;20.25;66.39;94978.66;5072697;28;20842;-75
2021/06/19 03:50:39;;;;;;;4.80;4.30;;;;;;;20.12;67.21;94988.34;5071990;28;20982;-75
2021/06/19 03:53:08;;;;;;;6.67;4.63;;;;;;;19.66;69.11;94992.63;5072268;28;20446;-75
2021/06/19 03:55:35;;;;;;;5.00;4.50;;;;;;;19.75;69.14;94998.75;5071536;28;20445;-72
2021/06/19 03:58:03;;;;;;;5.93;4.53;;;;;;;20.03;68.16;95000.06;5072124;28;20446;-75
2021/06/19 04:00:31;;;;;;;4.90;4.40;;;;;;;20.05;67.58;94976.59;5072457;28;20227;-73
2021/06/19 04:02:59;;;;;;;4.93;4.43;;;;;;;20.37;66.75;94997.44;5071738;28;21017;-76
2021/06/19 04:05:27;;;;;;;8.33;4.73;;;;;;;20.53;66.12;94987.88;5058572;28;20439;-74
2021/06/19 04:07:54;;;;;;;5.23;4.50;;;;;;;20.75;65.39;94985.03;5053025;28;20216;-73
2021/06/19 04:10:22;;;;;;;7.23;4.70;;;;;;;20.84;64.91;94983.13;5054901;28;20435;-76
2021/06/19 04:12:50;;;;;;;5.30;4.80;;;;;;;21.13;64.00;94980.56;5058495;28;20191;-73
2021/06/19 04:15:17;;;;;;;5.43;4.70;;;;;;;21.16;64.22;94979.16;5059663;28;20215;-74
2021/06/19 04:17:44;;;;;;;6.23;4.70;;;;;;;21.35;63.61;94987.53;5058053;28;20250;-72
2021/06/19 04:20:13;;;;;;;6.63;4.77;;;;;;;21.00;64.55;94978.88;5062964;28;20196;-71
2021/06/19 04:22:42;;;;;;;6.27;5.30;;;;;;;21.28;63.73;94975.78;5060669;28;20220;-74
2021/06/19 04:25:10;;;;;;;5.90;5.10;;;;;;;21.41;63.56;94974.81;5072235;28;20218;-72
2021/06/19 04:27:41;;;;;;;5.63;5.00;;;;;;;21.25;63.62;94973.78;5066644;28;20251;-73
2021/06/19 04:30:11;;;;;;;5.13;4.37;;;;;;;21.51;62.92;94972.56;5067166;28;20581;-69
2021/06/19 04:32:40;;;;;;;5.30;4.80;;;;;;;21.67;62.78;94967.47;5061287;28;20286;-69
2021/06/19 04:35:08;;;;;;;5.87;5.27;;;;;;;21.64;62.87;94978.78;5060625;28;20733;-69
2021/06/19 04:37:35;;;;;;;6.20;5.60;;;;;;;21.34;63.46;94985.19;5063047;28;20672;-69
2021/06/19 04:45:28;;;;;;;6.03;5.10;;;;;;;21.76;63.01;94986.84;5058083;28;20257;-69
2021/06/19 04:47:59;;;;;;;6.10;5.50;;;;;;;21.80;63.68;94990.47;5059882;28;20249;-69
2021/06/19 04:50:26;;;;;;;7.03;5.73;;;;;;;21.67;63.02;94994.91;5068547;28;20196;-71
2021/06/19 04:52:53;;;;;;;6.27;5.37;;;;;;;21.87;62.70;94999.53;5063528;28;20193;-70
2021/06/19 04:55:20;;;;;;;8.90;5.57;;;;;;;21.90;63.29;94992.75;5069307;28;20699;-71
2021/06/19 04:57:57;;;;;;;11.07;6.20;;;;;;;22.03;62.77;94991.72;5069330;28;20226;-71
2021/06/19 05:00:27;;;;;;;7.80;6.00;;;;;;;22.05;62.77;94992.19;5063522;28;20256;-71
2021/06/19 05:02:56;;;;;;;7.47;6.17;;;;;;;22.10;62.53;94997.34;5050691;28;20231;-70
2021/06/19 05:05:24;;;;;;;7.90;5.77;;;;;;;21.76;63.15;95002.88;5063705;28;20202;-70
2021/06/19 05:07:51;;;;;;;6.27;5.20;;;;;;;21.92;62.86;94998.56;5070014;28;20191;-70
2021/06/19 05:10:18;;;;;;;7.30;4.80;;;;;;;21.74;62.33;94994.41;5063076;28;20215;-70
2021/06/19 05:12:47;;;;;;;5.80;4.57;;;;;;;21.69;61.78;94991.91;5064147;28;20184;-70
2021/06/19 05:15:19;;;;;;;6.97;4.60;;;;;;;21.79;61.83;95000.38;5054628;28;20525;-68
2021/06/19 05:17:46;;;;;;;5.43;3.77;;;;;;;21.55;62.08;95002.03;5070325;28;20204;-71
2021/06/19 05:20:13;;;;;;;13.47;4.70;;;;;;;21.86;61.78;95007.88;5057953;28;20181;-72
2021/06/19 05:22:41;;;;;;;4.80;4.30;;;;;;;21.64;61.48;94986.78;5054618;28;20223;-71
2021/06/19 05:25:09;;;;;;;6.70;3.80;;;;;;;21.20;63.24;95005.94;5058080;28;20191;-73
2021/06/19 05:27:36;;;;;;;7.90;4.30;;;;;;;21.84;61.61;95004.75;5059005;28;20215;-73
2021/06/19 05:30:03;;;;;;;7.30;4.23;;;;;;;21.72;61.71;95001.94;5051234;28;20689;-73
2021/06/19 05:32:30;;;;;;;6.70;4.07;;;;;;;21.92;61.79;95003.91;5051235;28;20220;-71
2021/06/19 05:34:57;;;;;;;7.30;4.20;;;;;;;22.03;61.58;95013.09;5055933;28;20287;-73
2021/06/19 05:37:25;;;;;;;6.80;4.10;;;;;;;22.52;60.73;95008.78;5063902;28;20653;-74
2021/06/19 05:39:54;;;;;;;47.23;28.40;;;;;;;22.74;60.03;95006.59;5068471;28;20192;-77
2021/06/19 05:42:21;;;;;;;32.30;28.60;;;;;;;22.70;59.59;95011.00;5055966;28;20193;-73
2021/06/19 05:44:48;;;;;;;14.60;13.13;;;;;;;23.04;58.93;95015.25;5069597;28;20203;-73
2021/06/19 05:47:15;;;;;;;6.33;5.60;;;;;;;22.64;60.43;95019.56;5060664;28;20614;-71
2021/06/19 05:49:42;;;;;;;8.47;4.77;;;;;;;22.58;60.54;95015.53;5067346;28;20198;-67
2021/06/19 05:52:09;;;;;;;7.77;5.43;;;;;;;22.47;61.18;95012.44;5063990;28;20306;-74
2021/06/19 05:54:36;;;;;;;70.97;63.53;;;;;;;22.89;60.01;95016.66;5069070;28;20194;-70
2021/06/19 05:57:05;;;;;;;14.93;13.23;;;;;;;23.17;58.97;95018.72;5063759;28;20195;-70
2021/06/19 05:59:32;;;;;;;7.10;6.10;;;;;;;23.39;58.10;95010.34;5058311;28;20196;-70
2021/06/19 06:02:02;;;;;;;9.30;5.10;;;;;;;23.14;58.35;95014.81;5064615;28;20199;-72
2021/06/19 06:04:31;;;;;;;30.93;27.97;;;;;;;22.87;60.00;95016.22;5069302;28;20254;-72
2021/06/19 06:06:58;;;;;;;16.40;14.27;;;;;;;22.95;60.02;95015.34;5070110;28;20191;-71
2021/06/19 06:09:25;;;;;;;16.97;15.17;;;;;;;22.35;60.80;95014.28;5063457;28;20586;-74
2021/06/19 06:11:53;;;;;;;6.63;5.33;;;;;;;22.51;60.75;95013.38;5064076;28;20592;-74
2021/06/19 06:14:21;;;;;;;5.93;5.33;;;;;;;23.21;59.49;95015.06;5066339;28;20208;-72
2021/06/19 06:16:48;;;;;;;7.23;5.90;;;;;;;22.98;59.43;95019.25;5066608;28;20184;-73
2021/06/19 06:19:16;;;;;;;7.80;5.40;;;;;;;23.11;58.30;95015.50;5063677;28;20551;-72
2021/06/19 06:21:43;;;;;;;9.30;5.87;;;;;;;23.39;58.63;95013.81;5056490;28;20191;-72
2021/06/19 06:24:10;;;;;;;7.07;5.27;;;;;;;23.38;57.60;95014.09;5049379;28;20232;-75
2021/06/19 06:26:37;;;;;;;5.80;5.10;;;;;;;22.99;58.29;95012.81;5052650;28;20196;-72
2021/06/19 06:29:05;;;;;;;7.07;5.67;;;;;;;23.10;58.63;95009.34;5052816;28;20204;-72
2021/06/19 06:31:49;;;;;;;6.07;5.47;;;;;;;22.47;60.97;95025.81;5053177;28;20234;-74
2021/06/19 06:34:17;;;;;;;8.93;6.07;;;;;;;22.41;62.29;95019.09;5066862;28;20185;-70
2021/06/19 06:36:45;;;;;;;27.13;24.50;;;;;;;22.02;64.95;95027.53;5054206;28;20279;-72
2021/06/19 06:39:13;;;;;;;23.70;21.27;;;;;;;21.94;65.55;95009.69;5074123;28;20214;-69
2021/06/19 06:41:40;;;;;;;8.00;7.03;;;;;;;21.72;66.54;95018.72;5073698;28;20264;-71
2021/06/19 06:44:07;;;;;;;9.37;6.33;;;;;;;21.17;67.94;95024.13;5071853;28;20204;-72
2021/06/19 06:46:34;;;;;;;9.17;6.47;;;;;;;21.55;68.19;95018.03;5074574;28;20192;-71
2021/06/19 06:49:02;;;;;;;13.20;7.17;;;;;;;21.80;67.66;95033.16;5071675;28;20922;-74
2021/06/19 06:51:29;;;;;;;10.67;7.07;;;;;;;22.07;66.67;95019.34;5072546;28;20215;-78
2021/06/19 06:54:07;;;;;;;7.90;7.10;;;;;;;21.63;68.70;95025.19;5070155;28;20199;-70
2021/06/19 06:56:33;;;;;;;8.30;6.47;;;;;;;21.48;67.95;95023.06;5072257;28;20650;-72
2021/06/19 06:59:01;;;;;;;9.00;6.30;;;;;;;21.65;68.89;95023.00;5071663;28;20200;-72
2021/06/19 07:01:29;;;;;;;8.63;6.87;;;;;;;22.12;67.50;95019.16;5072043;28;20670;-74
2021/06/19 07:03:56;;;;;;;8.77;6.97;;;;;;;22.63;65.01;95015.31;5070807;28;20289;-73
2021/06/19 07:06:24;;;;;;;8.23;7.30;;;;;;;22.51;65.59;95023.25;5071586;28;20249;-75
2021/06/19 07:08:55;;;;;;;11.50;6.87;;;;;;;22.50;65.27;95016.38;5071331;28;20203;-70
2021/06/19 07:11:23;;;;;;;7.83;6.67;;;;;;;22.57;64.94;95004.06;5071872;28;20191;-72
2021/06/19 07:13:50;;;;;;;8.67;6.60;;;;;;;21.94;66.30;95007.03;5073215;28;20234;-71
2021/06/19 07:16:25;;;;;;;10.63;6.40;;;;;;;21.44;67.03;95014.16;5074399;28;20188;-71
2021/06/19 07:18:52;;;;;;;12.33;6.23;;;;;;;21.79;66.29;95002.25;5074642;28;20279;-70
2021/06/19 07:21:19;;;;;;;67.53;60.40;;;;;;;22.47;65.50;95001.78;5073568;28;20568;-69
2021/06/19 07:23:49;;;;;;;28.60;25.60;;;;;;;22.58;64.56;95000.28;5070878;28;20243;-70
2021/06/19 07:26:19;;;;;;;8.63;6.93;;;;;;;22.11;65.86;94998.91;5059700;28;20196;-72
2021/06/19 07:28:46;;;;;;;8.87;7.97;;;;;;;22.44;65.64;94991.75;5067215;28;20207;-71
2021/06/19 07:31:14;;;;;;;11.80;7.27;;;;;;;22.76;63.93;94987.53;5071762;28;20236;-71
2021/06/19 07:33:42;;;;;;;7.47;6.73;;;;;;;21.92;65.21;94985.22;5070248;28;20218;-70
2021/06/19 07:36:09;;;;;;;7.93;7.10;;;;;;;22.62;64.62;94981.72;5071108;28;20192;-70
2021/06/19 07:38:37;;;;;;;9.10;7.00;;;;;;;22.90;62.87;94983.47;5071181;28;20990;-71
2021/06/19 07:41:06;;;;;;;6.53;5.90;;;;;;;22.25;63.91;94990.63;5072241;28;20452;-73
2021/06/19 07:43:33;;;;;;;11.20;6.47;;;;;;;22.66;62.45;94985.31;5071517;28;20214;-67
2021/06/19 07:46:01;;;;;;;10.97;9.30;;;;;;;22.37;63.69;94980.78;5071961;28;20215;-72
2021/06/19 07:48:29;;;;;;;8.93;7.57;;;;;;;22.81;61.96;94979.34;5072979;28;20190;-72
2021/06/19 07:51:01;;;;;;;8.10;7.27;;;;;;;22.14;63.47;94979.56;5058288;28;20228;-73
2021/06/19 07:53:28;;;;;;;7.20;6.43;;;;;;;22.79;61.79;94971.63;5062554;28;20201;-75
2021/06/19 07:55:58;;;;;;;9.17;8.23;;;;;;;23.17;60.80;94956.13;5075975;28;20223;-73
2021/06/19 07:58:25;;;;;;;7.80;6.60;;;;;;;23.22;59.67;94965.03;5075870;28;20222;-74
2021/06/19 08:00:52;;;;;;;8.50;7.07;;;;;;;23.95;58.97;94970.09;5069739;28;20690;-74
2021/06/19 08:03:20;;;;;;;7.73;6.13;;;;;;;24.26;58.24;94963.34;5052439;28;20703;-73
2021/06/19 08:05:48;;;;;;;8.07;6.13;;;;;;;23.82;58.25;94954.38;5066169;28;20658;-76
2021/06/19 08:08:15;;;;;;;7.30;6.60;;;;;;;24.42;58.35;94959.59;5064892;28;20257;-75
2021/06/19 08:10:42;;;;;;;9.40;6.00;;;;;;;24.47;56.47;94948.63;5069716;28;20283;-73
2021/06/19 08:13:10;;;;;;;7.47;5.67;;;;;;;24.64;55.82;94956.38;5069122;28;20224;-71
2021/06/19 08:15:37;;;;;;;6.90;6.03;;;;;;;24.76;54.50;94955.59;5069693;28;20551;-67
2021/06/19 08:18:04;;;;;;;6.93;5.93;;;;;;;25.12;54.24;94951.91;5067240;28;20234;-69
2021/06/19 08:20:32;;;;;;;7.47;6.23;;;;;;;25.06;54.86;94944.13;5064987;28;20235;-68
2021/06/19 08:22:59;;;;;;;8.10;6.40;;;;;;;24.75;55.68;94949.44;5068141;28;20239;-67
2021/06/19 08:25:26;;;;;;;6.70;5.97;;;;;;;25.08;55.87;94949.94;5067272;28;20258;-71
2021/06/19 08:27:53;;;;;;;7.00;6.40;;;;;;;24.89;55.30;94955.16;5070543;28;20210;-66
2021/06/19 08:30:20;;;;;;;9.27;6.17;;;;;;;24.72;55.35;94944.78;5069618;28;20191;-65
2021/06/19 08:32:48;;;;;;;7.43;6.37;;;;;;;24.66;56.96;94948.78;5069163;28;20220;-65
2021/06/19 08:35:15;;;;;;;7.33;6.47;;;;;;;24.71;56.73;94940.53;5066393;28;20196;-65
2021/06/19 08:37:42;;;;;;;7.97;6.27;;;;;;;24.98;55.05;94931.66;5067181;28;20257;-63
2021/06/19 08:40:10;;;;;;;12.00;6.40;;;;;;;25.31;53.88;94934.00;5070021;28;20238;-72
2021/06/19 08:42:41;;;;;;;11.60;7.03;;;;;;;25.07;52.16;94937.63;5071130;28;20309;-69
2021/06/19 08:45:09;;;;;;;13.27;10.93;;;;;;;24.85;52.17;94935.53;5069869;28;20220;-69
2021/06/19 08:47:43;;;;;;;6.67;5.67;;;;;;;24.97;52.76;94924.75;5064136;28;20204;-70
2021/06/19 08:50:14;;;;;;;8.20;6.00;;;;;;;24.63;53.58;94925.38;5066002;28;20330;-72
2021/06/19 08:52:43;;;;;;;7.57;6.00;;;;;;;25.03;52.71;94934.09;5071402;28;20191;-69
2021/06/19 08:55:14;;;;;;;6.50;6.00;;;;;;;25.27;51.31;94918.94;5069634;28;20200;-67
2021/06/19 08:57:43;;;;;;;8.17;6.73;;;;;;;25.39;52.54;94926.94;5070092;28;20236;-68
2021/06/19 09:00:12;;;;;;;33.77;30.70;;;;;;;25.47;52.48;94921.41;5068831;28;20184;-70
2021/06/19 09:02:40;;;;;;;7.17;6.47;;;;;;;24.61;53.80;94874.03;5067166;28;20195;-71
2021/06/19 09:05:14;;;;;;;10.77;8.90;;;;;;;25.84;52.67;94908.41;5068689;28;20590;-71
2021/06/19 09:07:51;;;;;;;9.07;6.13;;;;;;;25.93;51.06;94912.44;5068852;28;20191;-70
2021/06/19 09:10:24;;;;;;;8.23;5.87;;;;;;;25.87;50.31;94907.72;5068621;28;20283;-72
2021/06/19 09:13:00;;;;;;;11.47;6.03;;;;;;;25.98;51.19;94906.03;5069622;28;20234;-70
2021/06/19 09:15:34;;;;;;;6.20;5.60;;;;;;;25.52;51.09;94896.19;5079927;28;20246;-71
2021/06/19 09:18:06;;;;;;;7.07;6.37;;;;;;;25.60;51.83;94908.66;5066561;28;20199;-69
2021/06/19 09:20:41;;;;;;;6.80;6.20;;;;;;;26.03;52.37;94908.44;5066652;28;20232;-71
2021/06/19 09:23:11;;;;;;;8.10;6.50;;;;;;;26.28;51.43;94901.69;5069224;28;20209;-69
2021/06/19 09:25:39;;;;;;;6.23;5.63;;;;;;;25.60;51.56;94904.03;5068014;28;20219;-69
2021/06/19 09:28:08;;;;;;;7.07;6.30;;;;;;;25.31;52.39;94895.69;5068978;28;20204;-71
2021/06/19 09:30:40;;;;;;;8.43;5.60;;;;;;;25.43;51.97;94899.06;5069424;28;20574;-72
2021/06/19 09:33:10;;;;;;;7.60;5.93;;;;;;;25.44;51.16;94889.09;5064741;28;20231;-73
2021/06/19 09:35:40;;;;;;;6.83;5.93;;;;;;;25.78;50.89;94893.72;5066069;28;20203;-72
2021/06/19 09:38:16;;;;;;;6.27;5.67;;;;;;;25.09;49.47;94897.84;5069525;28;20286;-74
2021/06/19 09:40:48;;;;;;;6.47;5.40;;;;;;;24.87;49.98;94893.06;5066043;28;20202;-71
2021/06/19 09:43:21;;;;;;;12.43;5.73;;;;;;;25.08;49.42;94885.56;5068006;28;20234;-70
2021/06/19 09:46:01;;;;;;;6.43;4.93;;;;;;;25.44;48.87;94895.25;5062802;28;20789;-71
2021/06/19 09:48:38;;;;;;;6.13;5.63;;;;;;;25.54;50.17;94896.63;5056660;28;20658;-68
2021/06/19 09:51:24;;;;;;;6.67;6.03;;;;;;;25.35;50.21;94904.56;5053286;28;20200;-67
2021/06/19 09:54:06;;;;;;;12.33;5.90;;;;;;;25.41;51.42;94900.53;5061958;28;20669;-67
2021/06/19 09:56:46;;;;;;;10.37;5.93;;;;;;;25.64;50.83;94909.50;5066830;28;20191;-67
2021/06/19 09:59:31;;;;;;;11.40;6.67;;;;;;;25.13;53.09;94913.25;5065177;28;20270;-66
2021/06/19 10:02:00;;;;;;;11.43;5.87;;;;;;;24.51;55.33;94920.06;5072160;28;20223;-66
2021/06/19 10:04:29;;;;;;;6.93;6.10;;;;;;;24.29;56.74;94917.91;5073563;28;20220;-67
2021/06/19 10:07:01;;;;;;;7.87;5.97;;;;;;;24.46;56.21;94911.47;5070023;28;20272;-68
2021/06/19 10:09:28;;;;;;;6.37;5.77;;;;;;;24.45;56.84;94905.34;5071026;28;20298;-67
2021/06/19 10:11:55;;;;;;;9.83;8.83;;;;;;;24.49;57.64;94908.13;5073208;28;20201;-71
2021/06/19 10:14:24;;;;;;;14.40;12.90;;;;;;;24.43;58.20;94907.59;5071024;28;20745;-68
2021/06/19 10:16:53;;;;;;;9.43;6.40;;;;;;;25.21;56.78;94877.44;5068827;28;20184;-62
2021/06/19 10:19:24;;;;;;;6.37;5.70;;;;;;;25.11;56.35;94897.50;5069495;28;20238;-64
2021/06/19 10:21:54;;;;;;;7.10;5.50;;;;;;;25.14;56.33;94893.34;5074126;28;20195;-66
2021/06/19 10:24:22;;;;;;;6.00;5.50;;;;;;;25.30;54.70;94889.53;5069467;28;20216;-69
2021/06/19 10:26:52;;;;;;;4.67;4.27;;;;;;;25.07;51.75;94889.38;5073541;28;20239;-72
2021/06/19 10:29:28;;;;;;;4.53;3.90;;;;;;;25.30;49.99;94875.34;5059317;28;20192;-66
2021/06/19 10:31:55;;;;;;;5.17;4.00;;;;;;;26.25;48.50;94875.53;5059196;28;20224;-69
2021/06/19 10:34:28;;;;;;;5.03;3.47;;;;;;;25.50;47.32;94868.94;5070028;28;20199;-68
2021/06/19 10:37:04;;;;;;;4.47;4.00;;;;;;;26.23;47.37;94872.44;5061347;28;20307;-67
2021/06/19 10:39:43;;;;;;;3.80;3.50;;;;;;;26.70;46.47;94864.88;5064876;28;20226;-69
2021/06/19 10:42:31;;;;;;;5.43;4.47;;;;;;;26.89;48.22;94861.38;5072864;28;20188;-69
2021/06/19 10:45:02;;;;;;;7.00;4.43;;;;;;;27.25;46.69;94862.72;5075671;28;20219;-70
2021/06/19 10:47:32;;;;;;;4.63;3.37;;;;;;;27.17;44.72;94855.69;5055548;28;20195;-70
2021/06/19 10:50:00;;;;;;;3.93;3.40;;;;;;;26.81;43.17;94844.34;5067864;28;20199;-67
2021/06/19 10:52:35;;;;;;;5.07;3.53;;;;;;;26.97;43.44;94836.91;5070659;28;20678;-66
2021/06/19 10:55:08;;;;;;;5.27;3.60;;;;;;;27.09;45.65;94833.28;5067361;28;20195;-66
2021/06/19 10:57:45;;;;;;;3.50;3.20;;;;;;;26.51;44.49;94838.03;5072963;28;20195;-66
2021/06/19 11:00:29;;;;;;;4.20;3.80;;;;;;;27.11;43.20;94843.66;5074755;28;20249;-68
2021/06/19 11:03:06;;;;;;;4.40;3.60;;;;;;;27.13;44.08;94839.50;5072049;28;20593;-69
2021/06/19 11:05:42;;;;;;;3.87;3.57;;;;;;;27.94;44.20;94846.06;5075300;28;20245;-67
2021/06/19 11:08:15;;;;;;;5.57;3.87;;;;;;;27.96;43.89;94833.00;5063408;28;20200;-68
2021/06/19 11:10:43;;;;;;;6.53;5.57;;;;;;;27.94;41.79;94837.97;5073300;28;20221;-66
2021/06/19 11:13:28;;;;;;;6.20;5.57;;;;;;;27.67;42.50;94850.69;5060010;28;20295;-67
2021/06/19 11:16:02;;;;;;;6.80;5.90;;;;;;;27.47;43.05;94843.09;5061909;28;20192;-67
2021/06/19 11:18:50;;;;;;;3.80;3.50;;;;;;;27.11;42.40;94847.16;5063409;28;20657;-67
2021/06/19 11:21:19;;;;;;;9.33;4.50;;;;;;;27.06;43.33;94854.75;5071664;28;20302;-68
2021/06/19 11:24:05;;;;;;;3.93;3.33;;;;;;;26.31;45.31;94866.06;5071506;28;20253;-68
2021/06/19 11:27:00;;;;;;;4.83;3.80;;;;;;;26.08;45.90;94864.44;5060781;28;20207;-70
2021/06/19 11:29:35;;;;;;;4.97;3.93;;;;;;;26.08;46.07;94864.44;5058541;28;20670;-70
2021/06/19 11:32:25;;;;;;;5.17;4.37;;;;;;;25.85;47.21;94857.06;5074749;28;20249;-69
2021/06/19 11:34:55;;;;;;;6.60;4.60;;;;;;;25.87;48.66;94883.56;5064779;28;20192;-69
2021/06/19 11:37:22;;;;;;;6.97;4.57;;;;;;;25.96;48.41;94892.19;5085575;28;20190;-68
2021/06/19 11:39:50;;;;;;;9.93;5.20;;;;;;;25.81;49.03;94903.75;5091167;28;20227;-68
2021/06/19 11:42:17;;;;;;;9.67;5.00;;;;;;;25.03;52.44;94922.59;5084611;28;20206;-72
2021/06/19 11:44:46;;;;;;;12.07;5.00;;;;;;;24.43;56.41;94921.00;5073866;28;20712;-68
2021/06/19 11:47:15;;;;;;;11.70;5.20;;;;;;;24.04;58.04;94945.88;5065613;28;20279;-66